Time;durP1;ratioP1;P1;durP2;ratioP2;P2;SDS_P1;SDS_P2;PMS_P1;PMS_P2;Temp;Humidity;BMP_temperature;BMP_pressure;BME280_temperature;BME280_humidity;BME280_pressure;Samples;Min_cycle;Max_cycle;Signal;HPM_P1;HPM_P2
2023/05/26 00:01:08;;;;;;;26.23;6.03;;;;;;;;;;5020193;28;20460;-59
2023/05/26 00:03:35;;;;;;;26.38;6.45;;;;;;;;;;5020476;28;20439;-59
2023/05/26 00:06:03;;;;;;;25.87;6.73;;;;;;;;;;5032588;28;20488;-59
2023/05/26 00:08:30;;;;;;;26.98;7.38;;;;;;;;;;5025047;28;20425;-59
2023/05/26 00:10:59;;;;;;;26.83;6.68;;;;;;;;;;5021291;28;20499;-59
2023/05/26 00:13:26;;;;;;;28.23;6.32;;;;;;;;;;5025921;28;20425;-59
2023/05/26 00:15:53;;;;;;;24.92;6.68;;;;;;;;;;5023960;28;20970;-59
2023/05/26 00:18:20;;;;;;;25.65;7.13;;;;;;;;;;5022700;28;21001;-59
2023/05/26 00:20:47;;;;;;;27.02;6.88;;;;;;;;;;5021349;28;20500;-59
2023/05/26 00:23:14;;;;;;;22.73;6.00;;;;;;;;;;5025598;28;20430;-59
2023/05/26 00:25:41;;;;;;;27.00;7.07;;;;;;;;;;5023375;28;20950;-59
2023/05/26 00:28:09;;;;;;;27.58;7.05;;;;;;;;;;5023731;28;20434;-59
2023/05/26 00:30:36;;;;;;;20.70;5.97;;;;;;;;;;5022539;28;20450;-59
2023/05/26 00:33:03;;;;;;;25.48;6.60;;;;;;;;;;5021442;28;20412;-59
2023/05/26 00:35:30;;;;;;;25.38;6.65;;;;;;;;;;5025104;28;20465;-59
2023/05/26 00:37:57;;;;;;;26.30;7.30;;;;;;;;;;5024789;28;20434;-58
2023/05/26 00:40:24;;;;;;;29.93;7.50;;;;;;;;;;5021043;28;20467;-59
2023/05/26 00:42:51;;;;;;;26.85;6.63;;;;;;;;;;5021512;28;20424;-57
2023/05/26 00:45:20;;;;;;;25.25;6.32;;;;;;;;;;5025405;28;20423;-59
2023/05/26 00:47:46;;;;;;;27.67;6.63;;;;;;;;;;5022203;28;20417;-58
2023/05/26 00:50:16;;;;;;;26.60;6.50;;;;;;;;;;5020693;28;20471;-58
2023/05/26 00:52:44;;;;;;;22.30;6.60;;;;;;;;;;5022257;28;20411;-57
2023/05/26 00:55:12;;;;;;;21.40;7.00;;;;;;;;;;5022830;28;20415;-58
2023/05/26 00:57:39;;;;;;;24.23;6.35;;;;;;;;;;5020804;28;20412;-56
2023/05/26 01:00:08;;;;;;;27.13;6.63;;;;;;;;;;5021131;28;20420;-58
2023/05/26 01:02:39;;;;;;;22.63;6.57;;;;;;;;;;5027401;28;20459;-58
2023/05/26 01:05:08;;;;;;;25.85;6.47;;;;;;;;;;5022773;28;20512;-57
2023/05/26 01:07:36;;;;;;;27.92;6.80;;;;;;;;;;5019423;28;20455;-58
2023/05/26 01:10:03;;;;;;;27.60;6.50;;;;;;;;;;5021594;28;20474;-59
2023/05/26 01:12:34;;;;;;;25.53;6.47;;;;;;;;;;5022424;28;20415;-58
2023/05/26 01:15:02;;;;;;;26.45;6.40;;;;;;;;;;5021684;28;20410;-59
2023/05/26 01:17:33;;;;;;;27.88;6.45;;;;;;;;;;5027035;28;20421;-59
2023/05/26 01:20:09;;;;;;;23.50;6.30;;;;;;;;;;5020774;28;20509;-59
2023/05/26 01:22:45;;;;;;;30.73;5.95;;;;;;;;;;5020468;28;20487;-59
2023/05/26 01:25:18;;;;;;;24.65;6.90;;;;;;;;;;5022953;28;20423;-59
2023/05/26 01:27:46;;;;;;;26.15;7.25;;;;;;;;;;5022151;28;20419;-59
2023/05/26 01:30:15;;;;;;;23.73;6.22;;;;;;;;;;5023636;28;20426;-58
2023/05/26 01:32:47;;;;;;;26.35;6.30;;;;;;;;;;5021572;28;20422;-59
2023/05/26 01:35:14;;;;;;;27.00;6.75;;;;;;;;;;5026312;28;20421;-59
2023/05/26 01:37:42;;;;;;;29.42;6.60;;;;;;;;;;5025374;28;20415;-59
2023/05/26 01:40:10;;;;;;;26.05;6.13;;;;;;;;;;5019279;28;20862;-58
2023/05/26 01:42:40;;;;;;;27.65;6.93;;;;;;;;;;5020939;28;20496;-59
2023/05/26 01:45:10;;;;;;;26.20;6.55;;;;;;;;;;5027430;28;20428;-59
2023/05/26 01:47:39;;;;;;;27.67;7.05;;;;;;;;;;5020850;28;20415;-59
2023/05/26 01:50:07;;;;;;;29.58;7.65;;;;;;;;;;5021725;28;20415;-59
2023/05/26 01:52:35;;;;;;;29.83;7.50;;;;;;;;;;5018082;28;20827;-59
2023/05/26 01:55:03;;;;;;;28.38;6.88;;;;;;;;;;5022020;28;20883;-59
2023/05/26 01:57:30;;;;;;;24.77;6.38;;;;;;;;;;5019942;28;20905;-59
2023/05/26 01:59:57;;;;;;;29.67;7.65;;;;;;;;;;5023025;28;20425;-59
2023/05/26 02:02:24;;;;;;;30.95;7.25;;;;;;;;;;5010783;28;20428;-59
2023/05/26 02:04:53;;;;;;;23.75;6.97;;;;;;;;;;5018968;28;20419;-59
2023/05/26 02:07:20;;;;;;;35.53;7.85;;;;;;;;;;5022537;28;20420;-58
2023/05/26 02:09:47;;;;;;;25.90;7.70;;;;;;;;;;5020952;28;20418;-59
2023/05/26 02:12:14;;;;;;;27.90;7.75;;;;;;;;;;5021740;28;20461;-59
2023/05/26 02:14:41;;;;;;;27.33;8.23;;;;;;;;;;5021162;28;20421;-59
2023/05/26 02:17:10;;;;;;;24.80;7.15;;;;;;;;;;5021307;28;20411;-59
2023/05/26 02:19:38;;;;;;;37.10;9.27;;;;;;;;;;5019336;28;20455;-58
2023/05/26 02:22:06;;;;;;;28.27;7.63;;;;;;;;;;5020060;28;20421;-59
2023/05/26 02:24:33;;;;;;;29.80;7.65;;;;;;;;;;5023844;28;20823;-59
2023/05/26 02:27:00;;;;;;;25.52;7.78;;;;;;;;;;5025627;28;20420;-59
2023/05/26 02:29:27;;;;;;;27.55;7.07;;;;;;;;;;5022881;28;21188;-59
2023/05/26 02:31:54;;;;;;;26.50;7.22;;;;;;;;;;5021045;28;20835;-59
2023/05/26 02:34:21;;;;;;;24.45;7.13;;;;;;;;;;5021354;28;20465;-59
2023/05/26 02:36:49;;;;;;;28.98;7.20;;;;;;;;;;5026749;28;20414;-58
2023/05/26 02:39:17;;;;;;;27.95;7.10;;;;;;;;;;5024081;28;20417;-59
2023/05/26 02:41:44;;;;;;;26.27;6.75;;;;;;;;;;5022749;28;20416;-59
2023/05/26 02:44:13;;;;;;;27.23;7.37;;;;;;;;;;5026743;28;20507;-58
2023/05/26 02:46:40;;;;;;;27.25;7.18;;;;;;;;;;5024106;28;20460;-59
2023/05/26 02:49:07;;;;;;;29.83;7.20;;;;;;;;;;5024870;28;20426;-59
2023/05/26 02:51:35;;;;;;;30.52;7.47;;;;;;;;;;5024375;28;20491;-58
2023/05/26 02:54:02;;;;;;;29.52;6.72;;;;;;;;;;5022588;28;20414;-59
2023/05/26 02:56:30;;;;;;;23.88;6.63;;;;;;;;;;5023922;28;20419;-58
2023/05/26 02:58:57;;;;;;;30.58;7.50;;;;;;;;;;5032571;28;20419;-57
2023/05/26 03:01:25;;;;;;;33.58;7.88;;;;;;;;;;5023578;28;20824;-56
2023/05/26 03:03:52;;;;;;;34.17;7.78;;;;;;;;;;5022810;28;21055;-60
2023/05/26 03:06:19;;;;;;;31.97;7.47;;;;;;;;;;5024268;28;20428;-60
2023/05/26 03:08:46;;;;;;;33.20;7.50;;;;;;;;;;5030157;28;20510;-58
2023/05/26 03:11:13;;;;;;;23.38;6.90;;;;;;;;;;5022801;28;20455;-60
2023/05/26 03:13:42;;;;;;;31.52;7.13;;;;;;;;;;5024458;28;20423;-60
2023/05/26 03:16:10;;;;;;;31.95;7.50;;;;;;;;;;5025096;28;20422;-60
2023/05/26 03:18:37;;;;;;;27.05;7.53;;;;;;;;;;5022977;28;20428;-59
2023/05/26 03:21:06;;;;;;;31.42;7.05;;;;;;;;;;5025721;28;20888;-60
2023/05/26 03:23:33;;;;;;;26.65;6.57;;;;;;;;;;5024131;28;20771;-60
2023/05/26 03:26:00;;;;;;;33.40;6.97;;;;;;;;;;5025481;28;20425;-59
2023/05/26 03:28:27;;;;;;;30.05;7.32;;;;;;;;;;5024215;28;20415;-58
2023/05/26 03:30:57;;;;;;;25.05;7.38;;;;;;;;;;5022919;28;20933;-59
2023/05/26 03:33:24;;;;;;;29.80;7.40;;;;;;;;;;5021707;28;20419;-59
2023/05/26 03:35:51;;;;;;;32.83;8.00;;;;;;;;;;5028272;28;20419;-60
2023/05/26 03:38:18;;;;;;;32.88;7.55;;;;;;;;;;5024570;28;20516;-59
2023/05/26 03:40:45;;;;;;;34.63;7.65;;;;;;;;;;5027857;28;20424;-59
2023/05/26 03:43:12;;;;;;;27.17;6.73;;;;;;;;;;5022478;28;20425;-60
2023/05/26 03:45:39;;;;;;;31.27;7.55;;;;;;;;;;5024057;28;20469;-59
2023/05/26 03:48:12;;;;;;;29.33;7.75;;;;;;;;;;5025204;28;20432;-60
2023/05/26 03:50:39;;;;;;;26.52;7.43;;;;;;;;;;5021516;28;20423;-59
2023/05/26 03:53:06;;;;;;;33.50;7.65;;;;;;;;;;5022870;28;20438;-59
2023/05/26 03:55:34;;;;;;;29.27;6.97;;;;;;;;;;5030949;28;20415;-60
2023/05/26 03:58:01;;;;;;;29.90;7.80;;;;;;;;;;5023992;28;20413;-60
2023/05/26 04:00:31;;;;;;;28.10;8.00;;;;;;;;;;5026953;28;20497;-59
2023/05/26 04:02:58;;;;;;;29.60;7.20;;;;;;;;;;5021796;28;20439;-60
2023/05/26 04:05:27;;;;;;;28.95;6.65;;;;;;;;;;5027221;28;20475;-60
2023/05/26 04:07:54;;;;;;;29.25;7.07;;;;;;;;;;5025875;28;20472;-59
2023/05/26 04:10:21;;;;;;;29.63;6.25;;;;;;;;;;5022553;28;20425;-60
2023/05/26 04:12:48;;;;;;;35.78;8.50;;;;;;;;;;5024995;28;20450;-59
2023/05/26 04:15:15;;;;;;;31.23;7.28;;;;;;;;;;5022065;28;20416;-60
2023/05/26 04:17:43;;;;;;;30.53;7.80;;;;;;;;;;5021307;28;20825;-59
2023/05/26 04:20:10;;;;;;;31.57;8.00;;;;;;;;;;5020876;28;20479;-60
2023/05/26 04:22:39;;;;;;;27.25;7.35;;;;;;;;;;5021723;28;20836;-60
2023/05/26 04:25:07;;;;;;;30.38;7.22;;;;;;;;;;5026226;28;20985;-60
2023/05/26 04:27:35;;;;;;;37.97;7.83;;;;;;;;;;5021851;28;20433;-60
2023/05/26 04:30:02;;;;;;;32.55;8.30;;;;;;;;;;5023867;28;20429;-59
2023/05/26 04:32:29;;;;;;;33.13;7.55;;;;;;;;;;5022308;28;20875;-60
2023/05/26 04:34:56;;;;;;;29.80;7.40;;;;;;;;;;5027716;28;20415;-59
2023/05/26 04:37:23;;;;;;;35.03;8.07;;;;;;;;;;5023899;28;20499;-60
2023/05/26 04:39:51;;;;;;;31.65;7.45;;;;;;;;;;5021404;28;20475;-60
2023/05/26 04:42:20;;;;;;;31.75;7.40;;;;;;;;;;5022996;28;20418;-60
2023/05/26 04:44:47;;;;;;;31.00;7.47;;;;;;;;;;5021706;28;20812;-60
2023/05/26 04:47:16;;;;;;;35.53;7.83;;;;;;;;;;5020699;28;20416;-60
2023/05/26 04:49:43;;;;;;;35.78;8.43;;;;;;;;;;5027366;28;20478;-60
2023/05/26 04:52:10;;;;;;;26.03;7.80;;;;;;;;;;5027041;28;20522;-59
2023/05/26 04:54:40;;;;;;;33.30;8.27;;;;;;;;;;5017055;28;20420;-60
2023/05/26 04:57:09;;;;;;;30.55;7.35;;;;;;;;;;5021428;28;20474;-59
2023/05/26 04:59:37;;;;;;;28.48;7.60;;;;;;;;;;5019996;28;20416;-60
2023/05/26 05:02:04;;;;;;;34.05;7.93;;;;;;;;;;5021123;28;20425;-59
2023/05/26 05:04:31;;;;;;;31.48;7.35;;;;;;;;;;5024147;28;20435;-58
2023/05/26 05:06:58;;;;;;;28.70;8.33;;;;;;;;;;5023622;28;20473;-59
2023/05/26 05:09:25;;;;;;;33.15;8.52;;;;;;;;;;5022496;28;20415;-60
2023/05/26 05:11:52;;;;;;;28.77;8.00;;;;;;;;;;5020408;28;20425;-60
2023/05/26 05:14:20;;;;;;;32.15;7.68;;;;;;;;;;5020592;28;20980;-59
2023/05/26 05:16:48;;;;;;;23.30;7.05;;;;;;;;;;5023735;28;20872;-60
2023/05/26 05:19:15;;;;;;;36.55;8.05;;;;;;;;;;5024092;28;20485;-60
2023/05/26 05:21:42;;;;;;;32.13;8.32;;;;;;;;;;5020003;28;20419;-60
2023/05/26 05:24:09;;;;;;;35.38;8.88;;;;;;;;;;5025952;28;20436;-59
2023/05/26 05:26:37;;;;;;;32.45;8.60;;;;;;;;;;5023395;28;20414;-60
2023/05/26 05:29:03;;;;;;;22.75;6.97;;;;;;;;;;5011147;28;20985;-60
2023/05/26 05:31:32;;;;;;;30.30;8.33;;;;;;;;;;5011108;28;20420;-60
2023/05/26 05:33:59;;;;;;;33.93;9.33;;;;;;;;;;5011907;28;20468;-59
2023/05/26 05:36:26;;;;;;;34.80;8.65;;;;;;;;;;5023642;28;20417;-60
2023/05/26 05:38:53;;;;;;;32.45;8.55;;;;;;;;;;5026114;28;20460;-58
2023/05/26 05:41:20;;;;;;;37.22;9.07;;;;;;;;;;5022823;28;20881;-57
2023/05/26 05:43:47;;;;;;;39.50;8.25;;;;;;;;;;5022828;28;20431;-56
2023/05/26 05:46:14;;;;;;;29.92;8.07;;;;;;;;;;5020707;28;20424;-58
2023/05/26 05:48:43;;;;;;;24.67;7.15;;;;;;;;;;5024434;28;20477;-56
2023/05/26 05:51:10;;;;;;;32.05;9.52;;;;;;;;;;5022152;28;20415;-56
2023/05/26 05:53:37;;;;;;;33.45;9.05;;;;;;;;;;5020881;28;20409;-59
2023/05/26 05:56:04;;;;;;;27.52;8.55;;;;;;;;;;5024432;28;20416;-58
2023/05/26 05:58:31;;;;;;;34.45;9.40;;;;;;;;;;5019557;28;20439;-59
2023/05/26 06:00:58;;;;;;;38.63;10.20;;;;;;;;;;5020511;28;20412;-59
2023/05/26 06:03:25;;;;;;;27.97;9.47;;;;;;;;;;5022712;28;20517;-60
2023/05/26 06:05:53;;;;;;;37.42;10.18;;;;;;;;;;5025678;28;20414;-60
2023/05/26 06:08:20;;;;;;;28.15;10.13;;;;;;;;;;5021865;28;20416;-60
2023/05/26 06:10:47;;;;;;;36.58;11.13;;;;;;;;;;5022500;28;20476;-59
2023/05/26 06:13:14;;;;;;;31.30;10.43;;;;;;;;;;5030335;28;20819;-60
2023/05/26 06:15:41;;;;;;;33.65;12.02;;;;;;;;;;5023245;28;20409;-60
2023/05/26 06:18:08;;;;;;;32.60;12.02;;;;;;;;;;5024514;28;20410;-60
2023/05/26 06:20:35;;;;;;;39.38;13.10;;;;;;;;;;5023965;28;20424;-60
2023/05/26 06:23:05;;;;;;;37.60;13.95;;;;;;;;;;5025393;28;20418;-60
2023/05/26 06:25:32;;;;;;;41.10;16.15;;;;;;;;;;5027531;28;20481;-61
2023/05/26 06:27:59;;;;;;;45.15;17.65;;;;;;;;;;5028952;28;20417;-59
2023/05/26 06:30:26;;;;;;;39.20;14.33;;;;;;;;;;5031060;28;20418;-59
2023/05/26 06:32:53;;;;;;;48.80;17.90;;;;;;;;;;5023422;28;20813;-59
2023/05/26 06:35:20;;;;;;;48.97;18.52;;;;;;;;;;5029202;28;20419;-60
2023/05/26 06:37:47;;;;;;;34.40;14.57;;;;;;;;;;5033640;28;20558;-60
2023/05/26 06:40:15;;;;;;;34.50;13.75;;;;;;;;;;5029387;28;20427;-60
2023/05/26 06:42:42;;;;;;;42.08;16.77;;;;;;;;;;5026824;28;20432;-59
2023/05/26 06:45:10;;;;;;;46.17;21.55;;;;;;;;;;5027320;28;20945;-58
2023/05/26 06:47:37;;;;;;;41.08;15.77;;;;;;;;;;5022502;28;20482;-60
2023/05/26 06:50:04;;;;;;;33.88;16.10;;;;;;;;;;5022202;28;20419;-58
2023/05/26 06:52:30;;;;;;;38.10;17.30;;;;;;;;;;5023870;28;20412;-59
2023/05/26 06:54:57;;;;;;;41.28;17.05;;;;;;;;;;5023036;28;20412;-60
2023/05/26 06:57:26;;;;;;;44.70;19.40;;;;;;;;;;5024256;28;20416;-60
2023/05/26 06:59:53;;;;;;;41.58;17.88;;;;;;;;;;5020600;28;20413;-60
2023/05/26 07:02:20;;;;;;;45.72;18.27;;;;;;;;;;5026007;28;20473;-59
2023/05/26 07:04:47;;;;;;;41.90;17.17;;;;;;;;;;5029762;28;20431;-60
2023/05/26 07:07:14;;;;;;;42.90;19.63;;;;;;;;;;5027367;28;20498;-59
2023/05/26 07:09:41;;;;;;;50.03;21.42;;;;;;;;;;5019645;28;20819;-59
2023/05/26 07:12:08;;;;;;;46.08;20.23;;;;;;;;;;5025373;28;20483;-58
2023/05/26 07:14:36;;;;;;;43.53;19.23;;;;;;;;;;5031816;28;20541;-59
2023/05/26 07:17:03;;;;;;;38.42;17.77;;;;;;;;;;5021900;28;20427;-59
2023/05/26 07:19:30;;;;;;;42.10;17.35;;;;;;;;;;5026772;28;20436;-59
2023/05/26 07:21:57;;;;;;;45.20;17.60;;;;;;;;;;5025459;28;20486;-60
2023/05/26 07:24:24;;;;;;;40.13;15.90;;;;;;;;;;5025688;28;20427;-59
2023/05/26 07:26:51;;;;;;;36.73;17.63;;;;;;;;;;5025996;28;20419;-60
2023/05/26 07:29:18;;;;;;;36.05;15.73;;;;;;;;;;5023667;28;20771;-61
2023/05/26 07:31:47;;;;;;;39.20;15.57;;;;;;;;;;5022063;28;20413;-60
2023/05/26 07:34:14;;;;;;;33.13;14.13;;;;;;;;;;5025410;28;20411;-59
2023/05/26 07:36:41;;;;;;;32.92;14.07;;;;;;;;;;5031317;28;21157;-59
2023/05/26 07:39:08;;;;;;;37.05;15.60;;;;;;;;;;5022401;28;20538;-60
2023/05/26 07:41:36;;;;;;;31.20;13.80;;;;;;;;;;5023484;28;20450;-60
2023/05/26 07:44:03;;;;;;;36.00;15.73;;;;;;;;;;5025345;28;20988;-60
2023/05/26 07:46:30;;;;;;;37.72;14.68;;;;;;;;;;5024036;28;20435;-60
2023/05/26 07:48:58;;;;;;;30.87;13.60;;;;;;;;;;5023359;28;20477;-61
2023/05/26 07:51:25;;;;;;;32.22;13.63;;;;;;;;;;5027620;28;20429;-61
2023/05/26 07:53:52;;;;;;;32.05;12.40;;;;;;;;;;5027309;28;20823;-60
2023/05/26 07:56:19;;;;;;;31.00;12.27;;;;;;;;;;5025882;28;20829;-59
2023/05/26 07:58:46;;;;;;;28.95;11.45;;;;;;;;;;5022178;28;20482;-63
2023/05/26 08:01:13;;;;;;;25.10;10.68;;;;;;;;;;5031027;28;20427;-59
2023/05/26 08:03:40;;;;;;;33.33;11.90;;;;;;;;;;5022312;28;20417;-59
2023/05/26 08:06:08;;;;;;;19.70;8.15;;;;;;;;;;5024781;28;20511;-59
2023/05/26 08:08:35;;;;;;;25.70;9.82;;;;;;;;;;5024788;28;20420;-59
2023/05/26 08:11:02;;;;;;;30.95;11.27;;;;;;;;;;5026160;28;20427;-59
2023/05/26 08:13:29;;;;;;;24.48;8.60;;;;;;;;;;5023950;28;20426;-58
2023/05/26 08:15:56;;;;;;;27.55;10.20;;;;;;;;;;5027940;28;20425;-58
2023/05/26 08:18:23;;;;;;;25.52;9.55;;;;;;;;;;5021277;28;20467;-59
2023/05/26 08:20:52;;;;;;;32.23;10.83;;;;;;;;;;5022691;28;20880;-57
2023/05/26 08:23:20;;;;;;;27.10;10.52;;;;;;;;;;5023510;28;20410;-60
2023/05/26 08:25:47;;;;;;;32.63;11.77;;;;;;;;;;5020885;28;20428;-59
2023/05/26 08:28:15;;;;;;;32.17;12.45;;;;;;;;;;5020453;28;20900;-61
2023/05/26 08:30:42;;;;;;;28.88;12.35;;;;;;;;;;5032076;28;20452;-60
2023/05/26 08:33:09;;;;;;;31.15;12.45;;;;;;;;;;5025609;28;20738;-61
2023/05/26 08:35:36;;;;;;;30.05;12.13;;;;;;;;;;5026182;28;20919;-60
2023/05/26 08:38:03;;;;;;;27.83;11.35;;;;;;;;;;5024737;28;20423;-60
2023/05/26 08:40:33;;;;;;;29.98;11.73;;;;;;;;;;5022330;28;20463;-60
2023/05/26 08:43:01;;;;;;;27.00;10.77;;;;;;;;;;5020237;28;20413;-61
2023/05/26 08:45:28;;;;;;;24.33;10.63;;;;;;;;;;5020897;28;20796;-61
2023/05/26 08:47:57;;;;;;;30.95;12.60;;;;;;;;;;5027137;28;20418;-61
2023/05/26 08:50:25;;;;;;;30.97;13.37;;;;;;;;;;5021611;28;20534;-62
2023/05/26 08:52:52;;;;;;;27.13;11.45;;;;;;;;;;5034050;28;20930;-59
2023/05/26 08:55:19;;;;;;;34.10;13.50;;;;;;;;;;5020634;28;20417;-61
2023/05/26 08:57:48;;;;;;;30.13;11.87;;;;;;;;;;5020096;28;20500;-61
2023/05/26 09:00:16;;;;;;;29.40;12.10;;;;;;;;;;5020483;28;20974;-62
2023/05/26 09:02:43;;;;;;;29.17;11.30;;;;;;;;;;5020571;28;20511;-59
2023/05/26 09:05:10;;;;;;;23.05;8.48;;;;;;;;;;5025947;28;20500;-60
2023/05/26 09:07:37;;;;;;;22.67;8.77;;;;;;;;;;5024923;28;20978;-60
2023/05/26 09:10:21;;;;;;;27.40;9.60;;;;;;;;;;5023255;28;20426;-63
2023/05/26 09:12:49;;;;;;;30.25;11.15;;;;;;;;;;5023181;28;20414;-62
2023/05/26 09:15:19;;;;;;;30.73;11.80;;;;;;;;;;5023710;28;20418;-58
2023/05/26 09:17:47;;;;;;;28.87;11.33;;;;;;;;;;5024060;28;20903;-61
2023/05/26 09:20:14;;;;;;;30.05;10.93;;;;;;;;;;5021922;28;20497;-59
2023/05/26 09:22:41;;;;;;;29.67;11.65;;;;;;;;;;5023642;28;20414;-60
2023/05/26 09:25:09;;;;;;;29.63;12.27;;;;;;;;;;5026013;28;20436;-61
2023/05/26 09:27:36;;;;;;;29.45;10.95;;;;;;;;;;5023826;28;20465;-57
2023/05/26 09:30:06;;;;;;;28.27;8.02;;;;;;;;;;5022841;28;20415;-59
2023/05/26 09:32:34;;;;;;;26.60;9.68;;;;;;;;;;5021662;28;20427;-60
2023/05/26 09:35:03;;;;;;;26.25;9.25;;;;;;;;;;5023311;28;20542;-58
2023/05/26 09:37:30;;;;;;;27.92;8.60;;;;;;;;;;5022604;28;20515;-61
2023/05/26 09:39:57;;;;;;;25.92;9.00;;;;;;;;;;5023681;28;20419;-58
2023/05/26 09:42:24;;;;;;;29.40;9.88;;;;;;;;;;5028985;28;20419;-55
2023/05/26 09:44:51;;;;;;;26.63;8.73;;;;;;;;;;5023425;28;20467;-58
2023/05/26 09:47:22;;;;;;;22.15;8.43;;;;;;;;;;5021049;28;20423;-60
2023/05/26 09:49:49;;;;;;;28.85;9.80;;;;;;;;;;5018034;28;20900;-59
2023/05/26 09:52:16;;;;;;;28.03;8.63;;;;;;;;;;5020506;28;20528;-60
2023/05/26 09:54:43;;;;;;;24.45;7.97;;;;;;;;;;5021053;28;20414;-60
2023/05/26 09:57:11;;;;;;;28.33;7.80;;;;;;;;;;5026817;28;20430;-59
2023/05/26 09:59:40;;;;;;;24.27;8.05;;;;;;;;;;5025751;28;20526;-60
2023/05/26 10:02:12;;;;;;;22.45;7.95;;;;;;;;;;5021736;28;20465;-59
2023/05/26 10:04:41;;;;;;;26.65;7.22;;;;;;;;;;5022281;28;20411;-59
2023/05/26 10:07:08;;;;;;;21.45;5.57;;;;;;;;;;5018468;28;20486;-61
2023/05/26 10:09:37;;;;;;;23.48;7.40;;;;;;;;;;5021518;28;20424;-64
2023/05/26 10:12:05;;;;;;;29.73;8.68;;;;;;;;;;5017581;28;20478;-59
2023/05/26 10:14:32;;;;;;;27.20;6.97;;;;;;;;;;5018027;28;20431;-59
2023/05/26 10:16:59;;;;;;;25.75;7.30;;;;;;;;;;5017835;28;20413;-59
2023/05/26 10:19:26;;;;;;;23.48;7.47;;;;;;;;;;5019223;28;20423;-65
2023/05/26 10:21:57;;;;;;;26.75;7.35;;;;;;;;;;5016197;28;20410;-65
2023/05/26 10:24:27;;;;;;;25.85;7.38;;;;;;;;;;5020005;28;20882;-65
2023/05/26 10:27:00;;;;;;;23.42;6.45;;;;;;;;;;5018706;28;20436;-65
2023/05/26 10:29:30;;;;;;;23.53;6.93;;;;;;;;;;5020219;28;20854;-66
2023/05/26 10:31:57;;;;;;;27.08;7.32;;;;;;;;;;5019440;28;20417;-65
2023/05/26 10:34:41;;;;;;;25.70;6.53;;;;;;;;;;5021058;28;20411;-64
2023/05/26 10:37:15;;;;;;;26.13;7.03;;;;;;;;;;5021424;28;20833;-65
2023/05/26 10:39:42;;;;;;;19.98;6.30;;;;;;;;;;5017033;28;20478;-65
2023/05/26 10:42:20;;;;;;;24.00;6.20;;;;;;;;;;5021509;28;20415;-62
2023/05/26 10:44:48;;;;;;;30.57;7.07;;;;;;;;;;5028499;28;20851;-64
2023/05/26 10:47:15;;;;;;;19.38;5.82;;;;;;;;;;5020280;28;20817;-66
2023/05/26 10:49:43;;;;;;;22.63;6.32;;;;;;;;;;5025258;28;21017;-65
2023/05/26 10:52:15;;;;;;;31.15;7.43;;;;;;;;;;5018396;28;20981;-64
2023/05/26 10:54:42;;;;;;;28.73;7.20;;;;;;;;;;5021422;28;20854;-67
2023/05/26 10:57:24;;;;;;;27.67;7.50;;;;;;;;;;5021532;28;20436;-65
2023/05/26 10:59:51;;;;;;;18.52;5.55;;;;;;;;;;5013581;28;20454;-67
2023/05/26 11:02:21;;;;;;;23.75;6.40;;;;;;;;;;5013268;28;20420;-66
2023/05/26 11:04:49;;;;;;;22.55;6.35;;;;;;;;;;5019565;28;20419;-67
2023/05/26 11:07:18;;;;;;;24.02;7.25;;;;;;;;;;5027168;28;20743;-67
2023/05/26 11:09:56;;;;;;;23.77;6.68;;;;;;;;;;5025266;28;20428;-67
2023/05/26 11:12:23;;;;;;;20.30;6.13;;;;;;;;;;5025721;28;20461;-67
2023/05/26 11:14:50;;;;;;;23.30;6.70;;;;;;;;;;5022319;28;20440;-66
2023/05/26 11:17:19;;;;;;;26.55;8.02;;;;;;;;;;5022294;28;20424;-66
2023/05/26 11:19:55;;;;;;;24.67;6.60;;;;;;;;;;5024145;28;20425;-66
2023/05/26 11:22:24;;;;;;;23.13;6.70;;;;;;;;;;5024123;28;20903;-64
2023/05/26 11:24:52;;;;;;;22.50;6.93;;;;;;;;;;5027272;28;20822;-71
2023/05/26 11:27:19;;;;;;;22.83;6.60;;;;;;;;;;5029069;28;20797;-68
2023/05/26 11:29:49;;;;;;;26.92;7.03;;;;;;;;;;5022458;28;21055;-64
2023/05/26 11:32:16;;;;;;;27.25;6.68;;;;;;;;;;5022788;28;20419;-65
2023/05/26 11:34:43;;;;;;;23.67;7.38;;;;;;;;;;5024049;28;20426;-66
2023/05/26 11:37:10;;;;;;;21.98;6.65;;;;;;;;;;5025748;28;20415;-65
2023/05/26 11:39:39;;;;;;;24.95;6.93;;;;;;;;;;5023522;28;20460;-69
2023/05/26 11:42:09;;;;;;;25.10;6.60;;;;;;;;;;5024518;28;20833;-66
2023/05/26 11:44:36;;;;;;;16.37;5.43;;;;;;;;;;5019729;28;20467;-66
2023/05/26 11:47:03;;;;;;;24.75;6.47;;;;;;;;;;5022527;28;20433;-67
2023/05/26 11:49:31;;;;;;;22.85;6.63;;;;;;;;;;5022546;28;20481;-67
2023/05/26 11:51:57;;;;;;;22.38;6.50;;;;;;;;;;5011920;28;20451;-67
2023/05/26 11:54:24;;;;;;;20.52;6.57;;;;;;;;;;5013269;28;20478;-67
2023/05/26 11:56:53;;;;;;;27.00;7.22;;;;;;;;;;5024666;28;20423;-65
2023/05/26 11:59:20;;;;;;;22.35;6.55;;;;;;;;;;5021028;28;20475;-64
2023/05/26 12:01:47;;;;;;;22.50;6.07;;;;;;;;;;5019858;28;20983;-67
2023/05/26 12:04:14;;;;;;;22.33;6.43;;;;;;;;;;5023496;28;20449;-64
2023/05/26 12:06:42;;;;;;;21.75;6.60;;;;;;;;;;5025783;28;20515;-65
2023/05/26 12:09:19;;;;;;;22.35;6.30;;;;;;;;;;5018653;28;20881;-65
2023/05/26 12:11:47;;;;;;;21.98;6.10;;;;;;;;;;5025079;28;20500;-65
2023/05/26 12:14:16;;;;;;;17.63;5.10;;;;;;;;;;5020909;28;20505;-65
2023/05/26 12:16:43;;;;;;;18.50;5.95;;;;;;;;;;5021879;28;20457;-65
2023/05/26 12:19:11;;;;;;;25.77;6.13;;;;;;;;;;5020042;28;20774;-65
2023/05/26 12:21:40;;;;;;;23.40;5.93;;;;;;;;;;5021768;28;20412;-66
2023/05/26 12:24:07;;;;;;;23.67;5.75;;;;;;;;;;5012592;28;20775;-65
2023/05/26 12:26:34;;;;;;;21.52;5.93;;;;;;;;;;5019438;28;20438;-68
2023/05/26 12:29:11;;;;;;;21.85;6.22;;;;;;;;;;5023987;28;20483;-68
2023/05/26 12:31:40;;;;;;;19.95;5.80;;;;;;;;;;5024032;28;20832;-67
2023/05/26 12:34:08;;;;;;;22.23;5.50;;;;;;;;;;5024847;28;20423;-67
2023/05/26 12:36:35;;;;;;;18.08;5.43;;;;;;;;;;5025389;28;20815;-66
2023/05/26 12:39:02;;;;;;;17.48;4.80;;;;;;;;;;5025354;28;20421;-63
2023/05/26 12:41:29;;;;;;;17.73;5.60;;;;;;;;;;5022277;28;20472;-63
2023/05/26 12:43:56;;;;;;;15.75;5.25;;;;;;;;;;5024537;28;20484;-64
2023/05/26 12:46:24;;;;;;;18.40;5.68;;;;;;;;;;5023945;28;20505;-64
2023/05/26 12:48:52;;;;;;;16.83;5.30;;;;;;;;;;5024196;28;20419;-64
2023/05/26 12:51:19;;;;;;;15.25;4.80;;;;;;;;;;5013079;28;20413;-65
2023/05/26 12:53:47;;;;;;;17.20;4.90;;;;;;;;;;5018267;28;20465;-63
2023/05/26 12:56:14;;;;;;;19.45;5.75;;;;;;;;;;5022599;28;20420;-64
2023/05/26 12:58:41;;;;;;;18.15;5.20;;;;;;;;;;5022091;28;20419;-66
2023/05/26 13:01:09;;;;;;;19.30;5.20;;;;;;;;;;5022833;28;20517;-66
2023/05/26 13:03:36;;;;;;;20.52;5.35;;;;;;;;;;5020444;28;20920;-66
2023/05/26 13:06:05;;;;;;;16.77;5.10;;;;;;;;;;5026875;28;20435;-65
2023/05/26 13:08:32;;;;;;;17.45;4.85;;;;;;;;;;5026493;28;20422;-65
2023/05/26 13:10:59;;;;;;;14.30;4.13;;;;;;;;;;5020514;28;20429;-65
2023/05/26 13:13:26;;;;;;;16.38;4.85;;;;;;;;;;5022368;28;20465;-66
2023/05/26 13:15:53;;;;;;;14.73;4.40;;;;;;;;;;5020492;28;20468;-65
2023/05/26 13:18:21;;;;;;;13.90;4.47;;;;;;;;;;5019289;28;20474;-66
2023/05/26 13:20:48;;;;;;;10.23;3.42;;;;;;;;;;5019175;28;20471;-65
2023/05/26 13:23:16;;;;;;;14.35;4.13;;;;;;;;;;5020094;28;20475;-66
2023/05/26 13:25:43;;;;;;;14.73;4.05;;;;;;;;;;5025819;28;20486;-66
2023/05/26 13:28:10;;;;;;;12.15;4.00;;;;;;;;;;5020000;28;20442;-66
2023/05/26 13:30:37;;;;;;;12.65;3.80;;;;;;;;;;5020983;28;20541;-65
2023/05/26 13:33:04;;;;;;;12.10;3.92;;;;;;;;;;5019715;28;20416;-66
2023/05/26 13:35:31;;;;;;;13.88;4.32;;;;;;;;;;5025170;28;20416;-65
2023/05/26 13:37:59;;;;;;;16.42;4.40;;;;;;;;;;5023007;28;20434;-66
2023/05/26 13:40:27;;;;;;;10.23;3.93;;;;;;;;;;5025553;28;20479;-66
2023/05/26 13:42:54;;;;;;;13.65;3.85;;;;;;;;;;5018722;28;20413;-66
2023/05/26 13:45:21;;;;;;;12.05;4.22;;;;;;;;;;5019792;28;20418;-65
2023/05/26 13:47:48;;;;;;;12.98;4.07;;;;;;;;;;5021232;28;20485;-65
2023/05/26 13:50:15;;;;;;;11.95;4.00;;;;;;;;;;5018725;28;20416;-58
2023/05/26 13:52:42;;;;;;;13.18;4.00;;;;;;;;;;5019901;28;20467;-60
2023/05/26 13:55:10;;;;;;;12.45;4.00;;;;;;;;;;5026247;28;20477;-63
2023/05/26 13:57:39;;;;;;;12.60;3.80;;;;;;;;;;5017171;28;20502;-60
2023/05/26 14:00:08;;;;;;;11.70;3.78;;;;;;;;;;5021460;28;20773;-62
2023/05/26 14:02:35;;;;;;;11.85;3.80;;;;;;;;;;5020879;28;20415;-61
2023/05/26 14:05:02;;;;;;;10.80;4.00;;;;;;;;;;5030462;28;20921;-58
2023/05/26 14:07:29;;;;;;;10.73;3.80;;;;;;;;;;5024166;28;20833;-59
2023/05/26 14:09:56;;;;;;;11.30;4.13;;;;;;;;;;5018570;28;20407;-61
2023/05/26 14:12:24;;;;;;;11.30;4.10;;;;;;;;;;5021811;28;20423;-60
2023/05/26 14:14:52;;;;;;;11.90;4.03;;;;;;;;;;5018132;28;20527;-61
2023/05/26 14:17:19;;;;;;;12.57;4.15;;;;;;;;;;5021939;28;20478;-61
2023/05/26 14:19:47;;;;;;;10.13;3.90;;;;;;;;;;5024631;28;20837;-60
2023/05/26 14:22:14;;;;;;;11.27;4.32;;;;;;;;;;5018675;28;20421;-60
2023/05/26 14:24:41;;;;;;;14.27;4.57;;;;;;;;;;5019582;28;20421;-58
2023/05/26 14:27:08;;;;;;;12.48;3.70;;;;;;;;;;5019516;28;20486;-56
2023/05/26 14:29:35;;;;;;;14.93;4.40;;;;;;;;;;5022406;28;20482;-59